sensor_id;sensor_type;location;lat;lon;timestamp;pressure;altitude;pressure_sealevel;temperature;humidity
9905;BME280;4991;43.566;27.820;2023-04-03T00:00:29;98124.59;;;8.34;100.00
9905;BME280;4991;43.566;27.820;2023-04-03T00:02:55;98132.53;;;8.31;100.00
9905;BME280;4991;43.566;27.820;2023-04-03T00:05:21;98134.28;;;8.27;100.00
9905;BME280;4991;43.566;27.820;2023-04-03T00:07:47;98134.97;;;8.19;100.00
9905;BME280;4991;43.566;27.820;2023-04-03T00:10:12;98135.47;;;8.07;100.00
9905;BME280;4991;43.566;27.820;2023-04-03T00:12:39;98125.34;;;7.99;100.00
9905;BME280;4991;43.566;27.820;2023-04-03T00:15:05;98136.09;;;8.04;100.00
9905;BME280;4991;43.566;27.820;2023-04-03T00:17:30;98145.81;;;8.05;100.00
9905;BME280;4991;43.566;27.820;2023-04-03T00:19:56;98136.09;;;8.04;100.00
9905;BME280;4991;43.566;27.820;2023-04-03T00:22:22;98138.50;;;8.06;100.00
9905;BME280;4991;43.566;27.820;2023-04-03T00:24:47;98143.22;;;8.00;100.00
9905;BME280;4991;43.566;27.820;2023-04-03T00:27:13;98138.19;;;7.94;100.00
9905;BME280;4991;43.566;27.820;2023-04-03T00:29:38;98142.81;;;7.93;100.00
9905;BME280;4991;43.566;27.820;2023-04-03T00:32:04;98143.13;;;7.92;100.00
9905;BME280;4991;43.566;27.820;2023-04-03T00:34:30;98148.22;;;7.93;100.00
9905;BME280;4991;43.566;27.820;2023-04-03T00:36:56;98146.94;;;7.91;100.00
9905;BME280;4991;43.566;27.820;2023-04-03T00:39:22;98143.53;;;7.85;100.00
9905;BME280;4991;43.566;27.820;2023-04-03T00:41:48;98148.94;;;7.85;100.00
9905;BME280;4991;43.566;27.820;2023-04-03T00:47:14;98139.63;;;7.77;100.00
9905;BME280;4991;43.566;27.820;2023-04-03T00:49:41;98149.66;;;7.77;100.00
9905;BME280;4991;43.566;27.820;2023-04-03T00:52:11;98152.88;;;7.79;100.00
9905;BME280;4991;43.566;27.820;2023-04-03T00:54:39;98139.53;;;7.69;100.00
9905;BME280;4991;43.566;27.820;2023-04-03T00:57:06;98150.75;;;7.76;100.00
9905;BME280;4991;43.566;27.820;2023-04-03T00:59:35;98149.66;;;7.77;100.00
9905;BME280;4991;43.566;27.820;2023-04-03T01:02:01;98152.06;;;7.78;100.00
9905;BME280;4991;43.566;27.820;2023-04-03T01:04:34;98141.72;;;7.80;100.00
9905;BME280;4991;43.566;27.820;2023-04-03T01:07:04;98141.00;;;7.88;100.00
9905;BME280;4991;43.566;27.820;2023-04-03T01:09:31;98145.53;;;7.93;100.00
9905;BME280;4991;43.566;27.820;2023-04-03T01:14:57;98156.56;;;7.97;100.00
9905;BME280;4991;43.566;27.820;2023-04-03T01:17:51;98149.44;;;7.87;100.00
9905;BME280;4991;43.566;27.820;2023-04-03T01:25:44;98151.97;;;7.97;100.00
9905;BME280;4991;43.566;27.820;2023-04-03T01:28:14;98152.84;;;8.06;100.00
9905;BME280;4991;43.566;27.820;2023-04-03T01:33:09;98146.81;;;8.09;100.00
9905;BME280;4991;43.566;27.820;2023-04-03T01:35:35;98147.00;;;8.13;100.00
9905;BME280;4991;43.566;27.820;2023-04-03T01:38:00;98138.91;;;7.99;100.00
9905;BME280;4991;43.566;27.820;2023-04-03T01:40:26;98140.41;;;8.05;100.00
9905;BME280;4991;43.566;27.820;2023-04-03T01:42:52;98140.50;;;8.14;100.00
9905;BME280;4991;43.566;27.820;2023-04-03T01:45:17;98140.72;;;7.90;100.00
9905;BME280;4991;43.566;27.820;2023-04-03T01:47:43;98149.03;;;7.80;100.00
9905;BME280;4991;43.566;27.820;2023-04-03T01:50:09;98145.72;;;7.69;100.00
9905;BME280;4991;43.566;27.820;2023-04-03T01:52:34;98147.75;;;7.64;100.00
9905;BME280;4991;43.566;27.820;2023-04-03T01:55:00;98150.53;;;7.86;100.00
9905;BME280;4991;43.566;27.820;2023-04-03T01:57:26;98155.44;;;7.98;100.00
9905;BME280;4991;43.566;27.820;2023-04-03T01:59:52;98171.81;;;8.06;100.00
9905;BME280;4991;43.566;27.820;2023-04-03T02:02:17;98176.75;;;8.04;100.00
9905;BME280;4991;43.566;27.820;2023-04-03T02:04:44;98171.13;;;7.87;100.00
9905;BME280;4991;43.566;27.820;2023-04-03T02:07:10;98173.22;;;7.76;100.00
9905;BME280;4991;43.566;27.820;2023-04-03T02:09:36;98178.25;;;7.56;100.00
9905;BME280;4991;43.566;27.820;2023-04-03T02:12:01;98173.50;;;7.48;100.00
9905;BME280;4991;43.566;27.820;2023-04-03T02:14:28;98178.03;;;7.52;100.00
9905;BME280;4991;43.566;27.820;2023-04-03T02:16:54;98171.19;;;7.55;100.00
9905;BME280;4991;43.566;27.820;2023-04-03T02:19:19;98173.84;;;7.73;100.00
9905;BME280;4991;43.566;27.820;2023-04-03T02:21:45;98182.69;;;7.79;100.00
9905;BME280;4991;43.566;27.820;2023-04-03T02:24:11;98181.25;;;7.81;100.00
9905;BME280;4991;43.566;27.820;2023-04-03T02:26:36;98189.19;;;7.92;100.00
9905;BME280;4991;43.566;27.820;2023-04-03T02:29:02;98193.50;;;8.06;100.00
9905;BME280;4991;43.566;27.820;2023-04-03T02:31:28;98193.41;;;8.11;100.00
9905;BME280;4991;43.566;27.820;2023-04-03T02:33:53;98196.84;;;8.17;100.00
9905;BME280;4991;43.566;27.820;2023-04-03T02:36:19;98200.34;;;8.17;100.00
9905;BME280;4991;43.566;27.820;2023-04-03T02:38:45;98202.47;;;8.20;100.00
9905;BME280;4991;43.566;27.820;2023-04-03T02:41:11;98193.31;;;8.16;100.00
9905;BME280;4991;43.566;27.820;2023-04-03T02:43:37;98201.97;;;8.32;100.00
9905;BME280;4991;43.566;27.820;2023-04-03T02:46:04;98199.47;;;8.35;100.00
9905;BME280;4991;43.566;27.820;2023-04-03T02:48:30;98207.00;;;8.38;100.00
9905;BME280;4991;43.566;27.820;2023-04-03T02:50:55;98210.22;;;8.40;100.00
9905;BME280;4991;43.566;27.820;2023-04-03T02:53:21;98209.50;;;8.35;100.00
9905;BME280;4991;43.566;27.820;2023-04-03T02:55:47;98204.50;;;8.28;100.00
9905;BME280;4991;43.566;27.820;2023-04-03T02:58:13;98204.06;;;8.21;100.00
9905;BME280;4991;43.566;27.820;2023-04-03T03:00:39;98208.38;;;8.22;100.00
9905;BME280;4991;43.566;27.820;2023-04-03T03:03:05;98204.88;;;8.22;100.00
9905;BME280;4991;43.566;27.820;2023-04-03T03:05:31;98221.06;;;8.27;100.00
9905;BME280;4991;43.566;27.820;2023-04-03T03:07:57;98210.59;;;8.20;100.00
9905;BME280;4991;43.566;27.820;2023-04-03T03:10:23;98211.41;;;8.21;100.00
9905;BME280;4991;43.566;27.820;2023-04-03T03:12:48;98219.34;;;8.17;100.00
9905;BME280;4991;43.566;27.820;2023-04-03T03:15:14;98215.81;;;8.17;100.00
9905;BME280;4991;43.566;27.820;2023-04-03T03:17:41;98219.13;;;8.14;100.00
9905;BME280;4991;43.566;27.820;2023-04-03T03:20:07;98211.78;;;8.14;100.00
9905;BME280;4991;43.566;27.820;2023-04-03T03:22:34;98223.25;;;8.11;100.00
9905;BME280;4991;43.566;27.820;2023-04-03T03:25:00;98219.53;;;8.07;100.00
9905;BME280;4991;43.566;27.820;2023-04-03T03:27:26;98219.53;;;8.07;100.00
9905;BME280;4991;43.566;27.820;2023-04-03T03:29:52;98212.50;;;8.06;100.00
9905;BME280;4991;43.566;27.820;2023-04-03T03:32:18;98221.22;;;8.03;100.00
9905;BME280;4991;43.566;27.820;2023-04-03T03:34:43;98220.16;;;8.04;100.00
9905;BME280;4991;43.566;27.820;2023-04-03T03:37:09;98220.31;;;8.08;100.00
9905;BME280;4991;43.566;27.820;2023-04-03T03:39:34;98223.44;;;8.01;100.00
9905;BME280;4991;43.566;27.820;2023-04-03T03:42:00;98233.97;;;8.03;100.00
9905;BME280;4991;43.566;27.820;2023-04-03T03:44:26;98232.38;;;8.02;100.00
9905;BME280;4991;43.566;27.820;2023-04-03T03:46:53;98232.19;;;7.98;100.00
9905;BME280;4991;43.566;27.820;2023-04-03T03:49:19;98242.03;;;7.94;100.00
9905;BME280;4991;43.566;27.820;2023-04-03T03:51:45;98244.63;;;7.85;100.00
9905;BME280;4991;43.566;27.820;2023-04-03T03:54:12;98236.88;;;7.79;100.00
9905;BME280;4991;43.566;27.820;2023-04-03T03:56:38;98257.38;;;7.85;100.00
9905;BME280;4991;43.566;27.820;2023-04-03T03:59:04;98253.16;;;7.79;100.00
9905;BME280;4991;43.566;27.820;2023-04-03T04:01:29;98255.16;;;7.73;100.00
9905;BME280;4991;43.566;27.820;2023-04-03T04:03:56;98261.16;;;7.70;100.00
9905;BME280;4991;43.566;27.820;2023-04-03T04:06:21;98254.19;;;7.64;100.00
9905;BME280;4991;43.566;27.820;2023-04-03T04:08:47;98259.63;;;7.64;100.00
9905;BME280;4991;43.566;27.820;2023-04-03T04:11:13;98258.03;;;7.63;100.00
9905;BME280;4991;43.566;27.820;2023-04-03T04:13:40;98258.13;;;7.58;100.00
9905;BME280;4991;43.566;27.820;2023-04-03T04:16:07;98269.16;;;7.62;100.00
9905;BME280;4991;43.566;27.820;2023-04-03T04:18:33;98258.31;;;7.62;100.00
9905;BME280;4991;43.566;27.820;2023-04-03T04:20:59;98270.56;;;7.59;100.00
9905;BME280;4991;43.566;27.820;2023-04-03T04:23:24;98274.38;;;7.58;100.00
9905;BME280;4991;43.566;27.820;2023-04-03T04:25:51;98259.22;;;7.57;100.00
9905;BME280;4991;43.566;27.820;2023-04-03T04:28:17;98249.47;;;7.56;100.00
9905;BME280;4991;43.566;27.820;2023-04-03T04:30:43;98261.56;;;7.64;100.00
9905;BME280;4991;43.566;27.820;2023-04-03T04:33:10;98264.56;;;7.62;100.00
9905;BME280;4991;43.566;27.820;2023-04-03T04:35:36;98270.38;;;7.69;100.00
9905;BME280;4991;43.566;27.820;2023-04-03T04:38:02;98269.06;;;7.67;100.00
9905;BME280;4991;43.566;27.820;2023-04-03T04:40:28;98278.13;;;7.76;100.00
9905;BME280;4991;43.566;27.820;2023-04-03T04:42:54;98274.31;;;7.77;100.00
9905;BME280;4991;43.566;27.820;2023-04-03T04:45:20;98278.03;;;7.81;100.00
9905;BME280;4991;43.566;27.820;2023-04-03T04:47:46;98280.66;;;7.86;100.00
9905;BME280;4991;43.566;27.820;2023-04-03T04:50:12;98281.84;;;7.80;100.00
9905;BME280;4991;43.566;27.820;2023-04-03T04:52:38;98288.59;;;7.82;100.00
9905;BME280;4991;43.566;27.820;2023-04-03T04:55:04;98283.19;;;7.96;100.00
9905;BME280;4991;43.566;27.820;2023-04-03T04:57:30;98280.59;;;8.05;100.00
9905;BME280;4991;43.566;27.820;2023-04-03T04:59:55;98281.41;;;8.05;100.00
9905;BME280;4991;43.566;27.820;2023-04-03T05:02:21;98274.25;;;8.09;100.00
9905;BME280;4991;43.566;27.820;2023-04-03T05:04:47;98284.06;;;8.24;100.00
9905;BME280;4991;43.566;27.820;2023-04-03T05:07:12;98288.94;;;8.22;100.00
9905;BME280;4991;43.566;27.820;2023-04-03T05:09:38;98294.00;;;8.28;100.00
9905;BME280;4991;43.566;27.820;2023-04-03T05:12:04;98295.69;;;8.38;100.00
9905;BME280;4991;43.566;27.820;2023-04-03T05:14:29;98285.25;;;8.45;100.00
9905;BME280;4991;43.566;27.820;2023-04-03T05:16:55;98294.22;;;8.45;100.00
9905;BME280;4991;43.566;27.820;2023-04-03T05:19:21;98293.81;;;8.38;100.00
9905;BME280;4991;43.566;27.820;2023-04-03T05:21:47;98296.22;;;8.40;100.00
9905;BME280;4991;43.566;27.820;2023-04-03T05:24:14;98293.09;;;8.46;100.00
9905;BME280;4991;43.566;27.820;2023-04-03T05:26:40;98290.06;;;8.48;100.00
9905;BME280;4991;43.566;27.820;2023-04-03T05:29:06;98291.81;;;8.44;100.00
9905;BME280;4991;43.566;27.820;2023-04-03T05:31:31;98298.81;;;8.45;100.00
9905;BME280;4991;43.566;27.820;2023-04-03T05:33:57;98292.59;;;8.44;100.00
9905;BME280;4991;43.566;27.820;2023-04-03T05:36:23;98289.47;;;8.51;100.00
9905;BME280;4991;43.566;27.820;2023-04-03T05:38:49;98283.34;;;8.59;100.00
9905;BME280;4991;43.566;27.820;2023-04-03T05:41:15;98294.78;;;8.69;100.00
9905;BME280;4991;43.566;27.820;2023-04-03T05:43:41;98301.53;;;8.72;100.00
9905;BME280;4991;43.566;27.820;2023-04-03T05:46:17;98312.19;;;8.82;100.00
9905;BME280;4991;43.566;27.820;2023-04-03T05:48:44;98301.78;;;8.84;100.00
9905;BME280;4991;43.566;27.820;2023-04-03T05:51:18;98313.03;;;9.04;100.00
9905;BME280;4991;43.566;27.820;2023-04-03T05:53:46;98309.69;;;9.07;100.00
9905;BME280;4991;43.566;27.820;2023-04-03T05:56:13;98309.38;;;9.09;100.00
9905;BME280;4991;43.566;27.820;2023-04-03T05:58:39;98309.91;;;9.11;100.00
9905;BME280;4991;43.566;27.820;2023-04-03T06:01:05;98317.72;;;9.12;100.00
9905;BME280;4991;43.566;27.820;2023-04-03T06:03:31;98309.97;;;9.20;100.00
9905;BME280;4991;43.566;27.820;2023-04-03T06:05:57;98328.66;;;9.35;100.00
9905;BME280;4991;43.566;27.820;2023-04-03T06:08:22;98330.00;;;9.46;100.00
9905;BME280;4991;43.566;27.820;2023-04-03T06:10:49;98335.22;;;9.56;100.00
9905;BME280;4991;43.566;27.820;2023-04-03T06:13:15;98339.00;;;9.68;100.00
9905;BME280;4991;43.566;27.820;2023-04-03T06:15:41;98337.31;;;9.81;100.00
9905;BME280;4991;43.566;27.820;2023-04-03T06:18:07;98342.31;;;9.87;100.00
9905;BME280;4991;43.566;27.820;2023-04-03T06:20:33;98344.59;;;9.94;100.00
9905;BME280;4991;43.566;27.820;2023-04-03T06:22:59;98352.00;;;10.02;100.00
9905;BME280;4991;43.566;27.820;2023-04-03T06:25:24;98359.06;;;10.03;100.00
9905;BME280;4991;43.566;27.820;2023-04-03T06:27:50;98365.06;;;10.13;100.00
9905;BME280;4991;43.566;27.820;2023-04-03T06:30:16;98371.13;;;10.10;100.00
9905;BME280;4991;43.566;27.820;2023-04-03T06:32:41;98378.41;;;10.23;100.00
9905;BME280;4991;43.566;27.820;2023-04-03T06:35:08;98369.84;;;10.38;100.00
9905;BME280;4991;43.566;27.820;2023-04-03T06:37:34;98366.31;;;10.38;100.00
9905;BME280;4991;43.566;27.820;2023-04-03T06:40:00;98364.00;;;10.54;100.00
9905;BME280;4991;43.566;27.820;2023-04-03T06:42:26;98370.44;;;10.58;100.00
9905;BME280;4991;43.566;27.820;2023-04-03T06:44:51;98378.78;;;10.70;100.00
9905;BME280;4991;43.566;27.820;2023-04-03T06:47:17;98375.75;;;10.71;100.00
9905;BME280;4991;43.566;27.820;2023-04-03T06:49:44;98373.72;;;10.77;100.00
9905;BME280;4991;43.566;27.820;2023-04-03T06:52:10;98366.84;;;10.79;100.00
9905;BME280;4991;43.566;27.820;2023-04-03T06:54:37;98379.72;;;10.96;100.00
9905;BME280;4991;43.566;27.820;2023-04-03T06:57:03;98382.59;;;10.91;100.00
9905;BME280;4991;43.566;27.820;2023-04-03T06:59:29;98374.75;;;11.06;100.00
9905;BME280;4991;43.566;27.820;2023-04-03T07:01:55;98373.69;;;11.16;100.00
9905;BME280;4991;43.566;27.820;2023-04-03T07:04:21;98384.72;;;11.19;100.00
9905;BME280;4991;43.566;27.820;2023-04-03T07:06:47;98395.66;;;11.36;100.00
9905;BME280;4991;43.566;27.820;2023-04-03T07:09:14;98399.22;;;11.45;100.00
9905;BME280;4991;43.566;27.820;2023-04-03T07:11:40;98396.81;;;11.61;100.00
9905;BME280;4991;43.566;27.820;2023-04-03T07:14:05;98403.13;;;11.70;100.00
9905;BME280;4991;43.566;27.820;2023-04-03T07:16:34;98402.66;;;11.85;100.00
9905;BME280;4991;43.566;27.820;2023-04-03T07:19:00;98408.88;;;12.03;100.00
9905;BME280;4991;43.566;27.820;2023-04-03T07:21:27;98399.09;;;12.10;100.00
9905;BME280;4991;43.566;27.820;2023-04-03T07:23:53;98398.88;;;12.32;100.00
9905;BME280;4991;43.566;27.820;2023-04-03T07:26:20;98393.69;;;12.56;100.00
9905;BME280;4991;43.566;27.820;2023-04-03T07:28:49;98371.47;;;12.75;100.00
9905;BME280;4991;43.566;27.820;2023-04-03T07:31:15;98374.19;;;12.75;100.00
9905;BME280;4991;43.566;27.820;2023-04-03T07:33:42;98378.38;;;12.64;100.00
9905;BME280;4991;43.566;27.820;2023-04-03T07:36:10;98377.00;;;12.87;100.00
9905;BME280;4991;43.566;27.820;2023-04-03T07:38:38;98382.53;;;13.16;100.00
9905;BME280;4991;43.566;27.820;2023-04-03T07:41:05;98383.09;;;13.01;100.00
9905;BME280;4991;43.566;27.820;2023-04-03T07:43:31;98390.41;;;13.38;100.00
9905;BME280;4991;43.566;27.820;2023-04-03T07:45:57;98384.50;;;13.57;100.00
9905;BME280;4991;43.566;27.820;2023-04-03T07:48:25;98394.69;;;14.09;100.00
9905;BME280;4991;43.566;27.820;2023-04-03T07:50:51;98388.84;;;14.52;100.00
9905;BME280;4991;43.566;27.820;2023-04-03T07:53:17;98398.94;;;14.96;100.00
9905;BME280;4991;43.566;27.820;2023-04-03T07:55:43;98402.25;;;15.14;100.00
9905;BME280;4991;43.566;27.820;2023-04-03T07:58:13;98402.94;;;15.11;100.00
9905;BME280;4991;43.566;27.820;2023-04-03T08:00:39;98395.84;;;14.98;100.00
9905;BME280;4991;43.566;27.820;2023-04-03T08:03:06;98398.16;;;15.20;100.00
9905;BME280;4991;43.566;27.820;2023-04-03T08:05:37;98383.19;;;15.05;100.00
9905;BME280;4991;43.566;27.820;2023-04-03T08:08:03;98396.75;;;15.38;100.00
9905;BME280;4991;43.566;27.820;2023-04-03T08:10:30;98397.53;;;15.75;100.00
9905;BME280;4991;43.566;27.820;2023-04-03T08:12:56;98386.94;;;15.61;100.00
9905;BME280;4991;43.566;27.820;2023-04-03T08:15:22;98409.94;;;15.44;100.00
9905;BME280;4991;43.566;27.820;2023-04-03T08:17:48;98411.28;;;15.63;100.00
9905;BME280;4991;43.566;27.820;2023-04-03T08:20:14;98421.06;;;15.88;100.00
9905;BME280;4991;43.566;27.820;2023-04-03T08:22:39;98419.97;;;15.77;100.00
9905;BME280;4991;43.566;27.820;2023-04-03T08:25:07;98417.94;;;15.62;100.00
9905;BME280;4991;43.566;27.820;2023-04-03T08:27:33;98414.31;;;15.85;100.00
9905;BME280;4991;43.566;27.820;2023-04-03T08:29:58;98414.59;;;15.68;100.00
9905;BME280;4991;43.566;27.820;2023-04-03T08:32:25;98403.13;;;16.18;100.00
9905;BME280;4991;43.566;27.820;2023-04-03T08:34:51;98390.34;;;16.10;100.00
9905;BME280;4991;43.566;27.820;2023-04-03T08:37:16;98401.59;;;15.93;100.00
9905;BME280;4991;43.566;27.820;2023-04-03T08:39:43;98405.44;;;16.04;100.00
9905;BME280;4991;43.566;27.820;2023-04-03T08:48:06;98419.50;;;16.69;100.00
9905;BME280;4991;43.566;27.820;2023-04-03T08:50:41;98424.00;;;16.46;100.00
9905;BME280;4991;43.566;27.820;2023-04-03T08:53:34;98410.72;;;16.95;100.00
9905;BME280;4991;43.566;27.820;2023-04-03T08:56:07;98407.53;;;16.93;100.00
9905;BME280;4991;43.566;27.820;2023-04-03T08:58:42;98407.38;;;17.17;100.00
9905;BME280;4991;43.566;27.820;2023-04-03T09:01:25;98396.72;;;17.00;100.00
9905;BME280;4991;43.566;27.820;2023-04-03T09:03:52;98393.59;;;17.02;100.00
9905;BME280;4991;43.566;27.820;2023-04-03T09:06:29;98401.50;;;17.19;100.00
9905;BME280;4991;43.566;27.820;2023-04-03T09:14:30;98403.97;;;17.08;100.00
9905;BME280;4991;43.566;27.820;2023-04-03T09:17:03;98388.81;;;16.83;100.00
9905;BME280;4991;43.566;27.820;2023-04-03T09:19:58;98408.72;;;17.08;100.00
9905;BME280;4991;43.566;27.820;2023-04-03T09:22:28;98402.72;;;17.37;100.00
9905;BME280;4991;43.566;27.820;2023-04-03T09:25:27;98398.72;;;17.50;100.00
9905;BME280;4991;43.566;27.820;2023-04-03T09:27:53;98404.16;;;16.68;100.00
9905;BME280;4991;43.566;27.820;2023-04-03T09:30:21;98403.50;;;16.32;100.00
9905;BME280;4991;43.566;27.820;2023-04-03T09:32:50;98396.19;;;16.79;100.00
9905;BME280;4991;43.566;27.820;2023-04-03T09:37:58;98387.56;;;16.81;100.00
9905;BME280;4991;43.566;27.820;2023-04-03T09:43:18;98377.25;;;17.74;100.00
9905;BME280;4991;43.566;27.820;2023-04-03T09:45:45;98370.88;;;17.70;100.00
9905;BME280;4991;43.566;27.820;2023-04-03T09:50:54;98367.13;;;18.17;100.00
9905;BME280;4991;43.566;27.820;2023-04-03T09:59:05;98356.53;;;17.99;100.00
9905;BME280;4991;43.566;27.820;2023-04-03T10:01:33;98357.25;;;18.54;100.00
9905;BME280;4991;43.566;27.820;2023-04-03T10:06:45;98357.19;;;18.73;100.00
9905;BME280;4991;43.566;27.820;2023-04-03T10:09:28;98357.41;;;19.09;100.00
9905;BME280;4991;43.566;27.820;2023-04-03T10:12:03;98364.09;;;18.86;100.00
9905;BME280;4991;43.566;27.820;2023-04-03T10:15:00;98371.47;;;18.78;100.00
9905;BME280;4991;43.566;27.820;2023-04-03T10:22:49;98368.63;;;20.02;100.00
9905;BME280;4991;43.566;27.820;2023-04-03T10:25:32;98362.13;;;20.90;100.00
9905;BME280;4991;43.566;27.820;2023-04-03T10:28:15;98368.13;;;22.11;100.00
9905;BME280;4991;43.566;27.820;2023-04-03T10:47:22;98360.53;;;20.49;100.00
9905;BME280;4991;43.566;27.820;2023-04-03T10:55:37;98360.03;;;19.25;100.00
9905;BME280;4991;43.566;27.820;2023-04-03T10:58:06;98362.03;;;20.10;100.00
9905;BME280;4991;43.566;27.820;2023-04-03T11:00:45;98354.31;;;20.22;100.00
9905;BME280;4991;43.566;27.820;2023-04-03T11:03:27;98351.19;;;19.39;100.00
9905;BME280;4991;43.566;27.820;2023-04-03T11:05:57;98346.72;;;19.31;100.00
9905;BME280;4991;43.566;27.820;2023-04-03T11:08:56;98346.53;;;20.02;100.00
9905;BME280;4991;43.566;27.820;2023-04-03T11:11:29;98338.50;;;21.00;100.00
9905;BME280;4991;43.566;27.820;2023-04-03T11:14:29;98345.00;;;20.74;100.00
9905;BME280;4991;43.566;27.820;2023-04-03T11:19:44;98341.56;;;20.14;100.00
9905;BME280;4991;43.566;27.820;2023-04-03T11:22:22;98331.69;;;19.84;100.00
9905;BME280;4991;43.566;27.820;2023-04-03T11:25:14;98334.56;;;19.61;100.00
9905;BME280;4991;43.566;27.820;2023-04-03T11:27:57;98326.34;;;19.68;100.00
9905;BME280;4991;43.566;27.820;2023-04-03T11:38:45;98313.63;;;18.82;100.00
9905;BME280;4991;43.566;27.820;2023-04-03T11:41:13;98328.56;;;18.58;100.00
9905;BME280;4991;43.566;27.820;2023-04-03T11:44:03;98328.13;;;18.56;100.00
9905;BME280;4991;43.566;27.820;2023-04-03T11:47:03;98332.44;;;18.35;100.00
9905;BME280;4991;43.566;27.820;2023-04-03T12:05:49;98332.03;;;20.12;100.00
9905;BME280;4991;43.566;27.820;2023-04-03T12:08:25;98327.44;;;20.56;100.00
9905;BME280;4991;43.566;27.820;2023-04-03T12:14:03;98318.78;;;21.69;100.00
9905;BME280;4991;43.566;27.820;2023-04-03T12:16:32;98324.56;;;20.93;100.00
9905;BME280;4991;43.566;27.820;2023-04-03T12:19:02;98331.69;;;19.54;100.00
9905;BME280;4991;43.566;27.820;2023-04-03T12:26:43;98324.88;;;19.74;100.00
9905;BME280;4991;43.566;27.820;2023-04-03T12:29:22;98332.22;;;19.37;100.00
9905;BME280;4991;43.566;27.820;2023-04-03T12:43:43;98305.22;;;17.91;100.00
9905;BME280;4991;43.566;27.820;2023-04-03T12:46:16;98301.75;;;17.75;100.00
9905;BME280;4991;43.566;27.820;2023-04-03T12:51:18;98296.56;;;17.20;100.00
9905;BME280;4991;43.566;27.820;2023-04-03T12:53:45;98289.91;;;17.21;100.00
9905;BME280;4991;43.566;27.820;2023-04-03T12:58:54;98291.78;;;17.17;100.00
9905;BME280;4991;43.566;27.820;2023-04-03T13:01:26;98273.00;;;17.04;100.00
9905;BME280;4991;43.566;27.820;2023-04-03T13:03:55;98281.19;;;17.00;100.00
9905;BME280;4991;43.566;27.820;2023-04-03T13:06:24;98278.66;;;16.76;100.00
9905;BME280;4991;43.566;27.820;2023-04-03T13:08:56;98284.16;;;16.76;100.00
9905;BME280;4991;43.566;27.820;2023-04-03T13:11:25;98293.38;;;16.68;100.00
9905;BME280;4991;43.566;27.820;2023-04-03T13:14:03;98298.59;;;16.89;100.00
9905;BME280;4991;43.566;27.820;2023-04-03T13:16:31;98297.09;;;16.75;100.00
9905;BME280;4991;43.566;27.820;2023-04-03T13:18:57;98304.72;;;16.98;100.00
9905;BME280;4991;43.566;27.820;2023-04-03T13:21:33;98302.63;;;17.10;100.00
9905;BME280;4991;43.566;27.820;2023-04-03T13:24:02;98301.25;;;16.85;100.00
9905;BME280;4991;43.566;27.820;2023-04-03T13:26:31;98298.13;;;16.87;100.00
9905;BME280;4991;43.566;27.820;2023-04-03T13:29:04;98301.97;;;16.82;100.00
9905;BME280;4991;43.566;27.820;2023-04-03T13:31:39;98305.41;;;16.95;100.00
9905;BME280;4991;43.566;27.820;2023-04-03T13:34:11;98309.59;;;16.73;100.00
9905;BME280;4991;43.566;27.820;2023-04-03T13:36:40;98307.16;;;16.40;100.00
9905;BME280;4991;43.566;27.820;2023-04-03T13:41:40;98312.06;;;16.47;100.00
9905;BME280;4991;43.566;27.820;2023-04-03T13:49:38;98315.31;;;15.94;100.00
9905;BME280;4991;43.566;27.820;2023-04-03T13:52:25;98320.44;;;15.40;100.00
9905;BME280;4991;43.566;27.820;2023-04-03T13:54:59;98316.84;;;15.52;100.00
9905;BME280;4991;43.566;27.820;2023-04-03T13:57:26;98321.47;;;15.75;100.00
9905;BME280;4991;43.566;27.820;2023-04-03T13:59:52;98321.06;;;15.61;100.00
9905;BME280;4991;43.566;27.820;2023-04-03T14:02:32;98319.59;;;15.27;100.00
9905;BME280;4991;43.566;27.820;2023-04-03T14:05:00;98318.09;;;15.54;100.00
9905;BME280;4991;43.566;27.820;2023-04-03T14:07:28;98335.13;;;15.35;100.00
9905;BME280;4991;43.566;27.820;2023-04-03T14:09:55;98329.78;;;15.39;100.00
9905;BME280;4991;43.566;27.820;2023-04-03T14:12:35;98329.22;;;15.33;100.00
9905;BME280;4991;43.566;27.820;2023-04-03T14:15:06;98332.44;;;15.11;100.00
9905;BME280;4991;43.566;27.820;2023-04-03T14:17:36;98338.03;;;15.15;100.00
9905;BME280;4991;43.566;27.820;2023-04-03T14:20:02;98345.38;;;14.99;100.00
9905;BME280;4991;43.566;27.820;2023-04-03T14:22:31;98334.28;;;14.83;100.00
9905;BME280;4991;43.566;27.820;2023-04-03T14:24:57;98346.94;;;14.52;100.00
9905;BME280;4991;43.566;27.820;2023-04-03T14:27:26;98343.03;;;14.53;100.00
9905;BME280;4991;43.566;27.820;2023-04-03T14:29:53;98349.06;;;14.34;100.00
9905;BME280;4991;43.566;27.820;2023-04-03T14:32:21;98344.84;;;14.04;100.00
9905;BME280;4991;43.566;27.820;2023-04-03T14:34:47;98346.81;;;14.15;100.00
9905;BME280;4991;43.566;27.820;2023-04-03T14:37:17;98358.22;;;14.17;100.00
9905;BME280;4991;43.566;27.820;2023-04-03T14:39:44;98358.22;;;14.17;100.00
9905;BME280;4991;43.566;27.820;2023-04-03T14:42:16;98354.84;;;14.00;100.00
9905;BME280;4991;43.566;27.820;2023-04-03T14:44:42;98361.88;;;13.89;100.00
9905;BME280;4991;43.566;27.820;2023-04-03T14:47:17;98359.94;;;13.89;100.00
9905;BME280;4991;43.566;27.820;2023-04-03T14:49:43;98362.09;;;13.84;100.00
9905;BME280;4991;43.566;27.820;2023-04-03T14:52:19;98365.63;;;13.84;100.00
9905;BME280;4991;43.566;27.820;2023-04-03T14:54:45;98372.44;;;13.58;100.00
9905;BME280;4991;43.566;27.820;2023-04-03T14:57:14;98366.56;;;13.68;100.00
9905;BME280;4991;43.566;27.820;2023-04-03T14:59:40;98371.19;;;13.76;100.00
9905;BME280;4991;43.566;27.820;2023-04-03T15:02:27;98365.34;;;13.57;100.00
9905;BME280;4991;43.566;27.820;2023-04-03T15:04:54;98361.16;;;13.59;100.00
9905;BME280;4991;43.566;27.820;2023-04-03T15:07:21;98372.69;;;13.44;100.00
9905;BME280;4991;43.566;27.820;2023-04-03T15:09:47;98367.84;;;13.21;100.00
9905;BME280;4991;43.566;27.820;2023-04-03T15:12:13;98373.34;;;13.21;100.00
9905;BME280;4991;43.566;27.820;2023-04-03T15:14:38;98380.94;;;13.07;100.00
9905;BME280;4991;43.566;27.820;2023-04-03T15:17:05;98386.97;;;12.91;100.00
9905;BME280;4991;43.566;27.820;2023-04-03T15:19:37;98389.56;;;12.88;100.00
9905;BME280;4991;43.566;27.820;2023-04-03T15:22:03;98393.88;;;12.89;100.00